ΕΜΥ, Εθνική Μετεωρολογική Υπηρεσία - Δελτία Καιρού, Προγνώσεις

ΑΕΡΟΝΑΥΤΙΛΙΑ

GREEK AIRPORTS CODES

LGLR 061650Z 00000KT 9999 FEW030 BKN080 13/04 Q1021=

EUROPEAN AIRPORTS CODES

LFPO 061700Z 05011KT CAVOK 08/M07 Q1026 NOSIG=